HLE08 EGNH-EGNH
Flight info
| Callsign | HLE08 |
|---|---|
| Flight time | 0h 2m |
| Altitude | 2500 |
| Route | HEMS TASKINGS |
| Aircraft | EC45/M-SDE2E3FGHIJ1RWXY/LB1 |
Departure
| Time | 2026-04-16 16:58 |
|---|---|
| Airport | Blackpool Airport (EGNH) |
Arrival
| Time | 2026-04-16 17:00 |
|---|---|
| Airport | Blackpool Airport (EGNH) |
| Time | Latitude | Longitude | Altitude | Speed | Heading |
|---|---|---|---|---|---|
| 2026-04-16 16:48 | 53.77628 | -3.04280 | 36 ft | 0 kts | 79° |
| 2026-04-16 16:55 | 53.77629 | -3.04278 | 36 ft | 2 kts | 53° |
| 2026-04-16 16:55 | 53.77633 | -3.04272 | 36 ft | 0 kts | 27° |
| 2026-04-16 16:56 | 53.77635 | -3.04274 | 36 ft | 1 kts | 90° |
| 2026-04-16 16:57 | 53.77625 | -3.04292 | 85 ft | 10 kts | 180° |
| 2026-04-16 16:57 | 53.77188 | -3.03811 | 383 ft | 71 kts | 135° |
| 2026-04-16 16:57 | 53.76807 | -3.03166 | 575 ft | 93 kts | 139° |
| 2026-04-16 16:58 | 53.76238 | -3.02349 | 531 ft | 116 kts | 139° |
| 2026-04-16 16:58 | 53.75828 | -3.01233 | 614 ft | 109 kts | 109° |
| 2026-04-16 16:58 | 53.75675 | -2.99965 | 709 ft | 112 kts | 104° |
| 2026-04-16 16:58 | 53.75551 | -2.98648 | 861 ft | 116 kts | 104° |
| 2026-04-16 16:59 | 53.75398 | -2.97156 | 933 ft | 138 kts | 104° |
| 2026-04-16 16:59 | 53.75239 | -2.95658 | 1070 ft | 116 kts | 103° |
| 2026-04-16 16:59 | 53.75231 | -2.94289 | 990 ft | 127 kts | 80° |
| 2026-04-16 16:59 | 53.75648 | -2.93004 | 1035 ft | 119 kts | 52° |
| 2026-04-16 17:00 | 53.76156 | -2.92092 | 1023 ft | 96 kts | 37° |
| 2026-04-16 17:00 | 53.76718 | -2.91851 | 1008 ft | 75 kts | 354° |
| 2026-04-16 17:00 | 53.77187 | -2.91861 | 1008 ft | 60 kts | 352° |
| 2026-04-16 17:00 | 53.77562 | -2.91832 | 999 ft | 48 kts | 352° |
| 2026-04-16 17:01 | 53.77876 | -2.91767 | 1001 ft | 45 kts | 353° |
| 2026-04-16 17:01 | 53.78191 | -2.91699 | 997 ft | 46 kts | 352° |
| 2026-04-16 17:01 | 53.78503 | -2.91619 | 1000 ft | 45 kts | 353° |
| 2026-04-16 17:01 | 53.78812 | -2.91536 | 1000 ft | 46 kts | 353° |
| 2026-04-16 17:02 | 53.79139 | -2.91449 | 997 ft | 49 kts | 353° |
| 2026-04-16 17:02 | 53.79474 | -2.91378 | 1004 ft | 49 kts | 353° |
| 2026-04-16 17:02 | 53.79809 | -2.91320 | 1000 ft | 48 kts | 352° |
| 2026-04-16 17:02 | 53.80136 | -2.91260 | 1001 ft | 47 kts | 353° |
| 2026-04-16 17:03 | 53.80466 | -2.91212 | 1000 ft | 48 kts | 353° |
| 2026-04-16 17:03 | 53.80787 | -2.91165 | 1000 ft | 45 kts | 353° |
| 2026-04-16 17:03 | 53.81095 | -2.91118 | 999 ft | 44 kts | 353° |
| 2026-04-16 17:03 | 53.81402 | -2.91061 | 1001 ft | 45 kts | 353° |
| 2026-04-16 17:04 | 53.81710 | -2.91001 | 1000 ft | 45 kts | 353° |
| 2026-04-16 17:04 | 53.82024 | -2.90955 | 1106 ft | 44 kts | 351° |
| 2026-04-16 17:04 | 53.82189 | -2.91225 | 1298 ft | 28 kts | 253° |
| 2026-04-16 17:04 | 53.82149 | -2.91510 | 1234 ft | 25 kts | 235° |
| 2026-04-16 17:05 | 53.82166 | -2.91904 | 1058 ft | 46 kts | 278° |
| 2026-04-16 17:05 | 53.82257 | -2.92501 | 831 ft | 47 kts | 248° |
| 2026-04-16 17:05 | 53.82170 | -2.92981 | 511 ft | 41 kts | 244° |
| 2026-04-16 17:05 | 53.82108 | -2.93302 | 318 ft | 16 kts | 231° |
| 2026-04-16 17:06 | 53.82060 | -2.93472 | 212 ft | 23 kts | 231° |
| 2026-04-16 17:06 | 53.82037 | -2.93621 | 107 ft | 7 kts | 221° |
| 2026-04-16 17:06 | 53.82034 | -2.93635 | 64 ft | 0 kts | 221° |